TimeCST,TemperatureF,Dew PointF,Humidity,Sea Level PressureIn,VisibilityMPH,Wind Direction,Wind SpeedMPH,Gust SpeedMPH,PrecipitationIn,Events,Conditions,WindDirDegrees,DateUTC
12:52 AM,25.0,15.1,66,30.21,10.0,Calm,Calm,-,N/A,,Clear,0,2013-02-17 06:52:00
1:52 AM,26.1,16.0,66,30.21,10.0,Calm,Calm,-,N/A,,Clear,0,2013-02-17 07:52:00
2:52 AM,25.0,15.1,66,30.21,10.0,Calm,Calm,-,N/A,,Clear,0,2013-02-17 08:52:00
3:52 AM,24.1,15.1,69,30.21,10.0,Calm,Calm,-,N/A,,Clear,0,2013-02-17 09:52:00
4:52 AM,24.1,16.0,71,30.21,10.0,Calm,Calm,-,N/A,,Overcast,0,2013-02-17 10:52:00
5:52 AM,24.1,16.0,71,30.22,10.0,Calm,Calm,-,N/A,,Overcast,0,2013-02-17 11:52:00
6:52 AM,26.1,18.0,71,30.23,10.0,Calm,Calm,-,N/A,,Overcast,0,2013-02-17 12:52:00
7:52 AM,28.9,19.0,67,30.24,10.0,East,3.5,-,N/A,,Overcast,100,2013-02-17 13:52:00
8:52 AM,32.0,21.9,66,30.25,10.0,ESE,5.8,-,N/A,,Overcast,110,2013-02-17 14:52:00
9:52 AM,37.0,18.0,46,30.25,10.0,ESE,6.9,-,N/A,,Overcast,120,2013-02-17 15:52:00
10:52 AM,41.0,16.0,36,30.23,10.0,ESE,8.1,-,N/A,,Overcast,110,2013-02-17 16:52:00
11:52 AM,46.0,16.0,30,30.20,10.0,South,5.8,-,N/A,,Mostly Cloudy,170,2013-02-17 17:52:00
12:52 PM,46.9,21.0,36,30.17,10.0,South,12.7,-,N/A,,Overcast,180,2013-02-17 18:52:00
1:52 PM,48.0,21.0,34,30.14,10.0,South,13.8,21.9,N/A,,Scattered Clouds,180,2013-02-17 19:52:00
2:52 PM,50.0,21.9,33,30.12,10.0,SSE,11.5,-,N/A,,Clear,160,2013-02-17 20:52:00
3:52 PM,50.0,24.1,36,30.10,10.0,SSE,12.7,-,N/A,,Clear,160,2013-02-17 21:52:00
4:52 PM,48.0,23.0,37,30.09,10.0,SSE,15.0,-,N/A,,Clear,150,2013-02-17 22:52:00
5:52 PM,45.0,23.0,42,30.07,10.0,SE,8.1,-,N/A,,Clear,140,2013-02-17 23:52:00
6:52 PM,43.0,23.0,45,30.08,10.0,SE,8.1,-,N/A,,Clear,140,2013-02-18 00:52:00
7:52 PM,42.1,23.0,47,30.08,10.0,SE,6.9,-,N/A,,Clear,140,2013-02-18 01:52:00
8:52 PM,39.0,23.0,53,30.07,10.0,SE,6.9,-,N/A,,Clear,130,2013-02-18 02:52:00
9:52 PM,44.1,21.9,42,30.05,10.0,SSE,10.4,-,N/A,,Clear,160,2013-02-18 03:52:00
11:52 PM,42.1,23.0,47,30.01,10.0,South,9.2,-,N/A,,Clear,170,2013-02-18 05:52:00